Time;durP1;ratioP1;P1;durP2;ratioP2;P2;SDS_P1;SDS_P2;PMS_P1;PMS_P2;Temp;Humidity;BMP_temperature;BMP_pressure;BME280_temperature;BME280_humidity;BME280_pressure;Samples;Min_cycle;Max_cycle;Signal;HPM_P1;HPM_P2
2022/05/28 00:01:26;;;;;;;0.20;0.00;;;11.30;98.50;;;;;;5012410;28;20053;-76
2022/05/28 00:03:53;;;;;;;0.20;0.10;;;11.30;98.70;;;;;;5012375;28;20056;-75
2022/05/28 00:06:21;;;;;;;0.32;0.32;;;11.20;98.90;;;;;;5014933;28;20391;-76
2022/05/28 00:08:47;;;;;;;0.15;0.10;;;11.10;99.10;;;;;;5014404;28;20096;-76
2022/05/28 00:11:14;;;;;;;0.00;0.00;;;11.10;99.10;;;;;;4998934;28;20057;-76
2022/05/28 00:13:40;;;;;;;2.28;0.20;;;11.00;99.30;;;;;;5015708;28;20053;-76
2022/05/28 00:16:05;;;;;;;0.20;0.10;;;11.00;99.50;;;;;;5016005;28;20426;-76
2022/05/28 00:18:31;;;;;;;0.10;0.10;;;10.90;99.60;;;;;;5015886;28;20084;-76
2022/05/28 00:20:57;;;;;;;0.10;0.10;;;10.90;99.60;;;;;;5014325;28;20049;-75
2022/05/28 00:23:23;;;;;;;0.30;0.10;;;10.90;99.60;;;;;;5015505;28;20066;-75
2022/05/28 00:25:49;;;;;;;0.10;0.10;;;10.90;99.60;;;;;;5015690;28;20054;-75
2022/05/28 00:28:15;;;;;;;1.55;0.15;;;10.80;99.60;;;;;;5014652;28;20050;-76
2022/05/28 00:30:41;;;;;;;0.28;0.10;;;10.80;99.60;;;;;;5015569;28;20049;-76
2022/05/28 00:33:06;;;;;;;0.20;0.10;;;10.80;99.70;;;;;;5014605;28;20441;-76
2022/05/28 00:35:32;;;;;;;0.30;0.20;;;10.80;99.70;;;;;;5014543;28;20584;-75
2022/05/28 00:37:58;;;;;;;0.20;0.10;;;10.70;99.70;;;;;;5014488;28;20050;-75
2022/05/28 00:40:25;;;;;;;2.00;0.20;;;10.70;99.70;;;;;;5015868;28;20132;-75
2022/05/28 00:42:50;;;;;;;1.10;0.10;;;10.70;99.80;;;;;;5015333;28;20046;-75
2022/05/28 00:45:16;;;;;;;0.60;0.10;;;10.70;99.60;;;;;;5015568;28;20508;-76
2022/05/28 00:47:46;;;;;;;0.10;0.10;;;10.70;99.60;;;;;;5015427;28;20068;-76
2022/05/28 00:50:12;;;;;;;0.30;0.10;;;10.60;99.60;;;;;;4998188;28;20521;-74
2022/05/28 00:52:38;;;;;;;0.43;0.10;;;10.60;99.70;;;;;;5013799;28;20050;-76
2022/05/28 00:55:04;;;;;;;0.25;0.10;;;10.60;99.80;;;;;;5014156;28;20124;-76
2022/05/28 00:57:30;;;;;;;0.10;0.10;;;10.50;99.80;;;;;;5014177;28;20124;-75
2022/05/28 00:59:56;;;;;;;0.10;0.10;;;10.50;99.90;;;;;;5013757;28;20050;-76
2022/05/28 01:02:44;;;;;;;1.35;0.20;;;10.50;99.90;;;;;;5015099;28;20052;-76
2022/05/28 01:05:34;;;;;;;0.35;0.20;;;10.50;99.90;;;;;;5014566;28;20061;-76
2022/05/28 01:08:15;;;;;;;0.08;0.08;;;10.50;99.90;;;;;;5013624;28;20046;-75
2022/05/28 01:10:48;;;;;;;;;;;10.50;99.90;;;;;;4999806;28;20054;-77
2022/05/28 01:13:38;;;;;;;1.58;0.10;;;10.50;99.90;;;;;;5013562;28;19971;-77
2022/05/28 01:16:19;;;;;;;0.10;0.10;;;10.50;99.90;;;;;;5014229;28;20121;-77
2022/05/28 01:18:55;;;;;;;1.65;0.20;;;10.40;99.90;;;;;;4997622;28;20128;-76
2022/05/28 01:21:45;;;;;;;0.10;0.10;;;10.40;99.90;;;;;;5018208;28;20046;-72
2022/05/28 01:24:26;;;;;;;0.10;0.10;;;10.30;99.90;;;;;;5026536;28;20061;-72
2022/05/28 01:26:52;;;;;;;;;;;10.30;99.90;;;;;;5025107;28;20072;-72
2022/05/28 01:29:17;;;;;;;0.10;0.10;;;10.30;99.90;;;;;;5016852;28;20020;-76
2022/05/28 01:31:43;;;;;;;0.45;0.10;;;10.30;99.90;;;;;;5013401;28;20133;-76
2022/05/28 01:34:09;;;;;;;0.22;0.10;;;10.30;99.90;;;;;;5012909;28;20552;-76
2022/05/28 01:36:35;;;;;;;0.50;0.10;;;10.20;99.90;;;;;;5014659;28;20050;-76
2022/05/28 01:39:01;;;;;;;0.65;0.10;;;10.20;99.90;;;;;;5013116;28;20390;-76
2022/05/28 01:41:29;;;;;;;0.10;0.10;;;10.20;99.90;;;;;;4996980;28;20445;-76
2022/05/28 01:43:56;;;;;;;0.10;0.10;;;10.10;99.90;;;;;;4997013;28;20041;-76
2022/05/28 01:46:21;;;;;;;0.20;0.17;;;10.10;99.90;;;;;;4997509;28;20161;-75
2022/05/28 01:48:48;;;;;;;0.30;0.10;;;10.10;99.90;;;;;;4997447;28;20041;-80
2022/05/28 01:51:14;;;;;;;0.10;0.10;;;10.00;99.90;;;;;;4997771;28;20490;-77
2022/05/28 01:56:24;;;;;;;0.55;0.10;;;10.00;99.90;;;;;;5000238;28;20053;-75
2022/05/28 01:58:49;;;;;;;0.43;0.10;;;10.00;99.90;;;;;;4997105;28;20046;-76
2022/05/28 02:01:15;;;;;;;0.10;0.10;;;10.00;99.90;;;;;;5013478;28;20099;-76
2022/05/28 02:03:42;;;;;;;0.10;0.10;;;10.00;99.80;;;;;;5014657;28;20368;-74
2022/05/28 02:06:07;;;;;;;1.15;0.10;;;10.00;99.80;;;;;;4996822;28;20049;-75
2022/05/28 02:08:35;;;;;;;0.52;0.10;;;10.00;99.60;;;;;;5013097;28;20054;-76
2022/05/28 02:11:21;;;;;;;0.10;0.10;;;10.00;99.50;;;;;;5014008;28;20165;-76
2022/05/28 02:13:49;;;;;;;0.10;0.10;;;10.00;99.70;;;;;;5013682;28;20089;-76
2022/05/28 02:16:17;;;;;;;0.17;0.10;;;9.90;99.60;;;;;;5014395;28;20056;-75
2022/05/28 02:18:50;;;;;;;0.22;0.10;;;9.90;99.70;;;;;;5014248;28;20049;-74
2022/05/28 02:21:34;;;;;;;0.85;0.10;;;9.90;99.70;;;;;;5014129;28;20050;-75
2022/05/28 02:24:07;;;;;;;0.10;0.10;;;9.90;99.60;;;;;;4997070;28;20066;-74
2022/05/28 02:27:05;;;;;;;0.52;0.10;;;9.90;99.60;;;;;;4995878;28;20065;-76
2022/05/28 02:29:32;;;;;;;0.32;0.10;;;9.90;99.80;;;;;;5028446;28;20072;-76
2022/05/28 02:31:57;;;;;;;0.10;0.10;;;9.90;99.70;;;;;;5012121;28;20151;-75
2022/05/28 02:34:23;;;;;;;0.10;0.10;;;9.80;99.50;;;;;;5013343;28;20077;-74
2022/05/28 02:36:49;;;;;;;0.50;0.20;;;9.80;99.50;;;;;;5012234;28;20639;-77
2022/05/28 02:39:14;;;;;;;0.85;0.10;;;9.90;99.60;;;;;;4979788;28;20045;-76
2022/05/28 02:41:40;;;;;;;0.10;0.10;;;9.90;99.60;;;;;;4996367;28;20046;-75
2022/05/28 02:44:06;;;;;;;0.10;0.10;;;9.90;99.50;;;;;;5013012;28;20041;-76
2022/05/28 02:46:32;;;;;;;0.10;0.10;;;9.90;99.60;;;;;;5013625;28;20383;-75
2022/05/28 02:48:58;;;;;;;1.50;0.10;;;10.00;99.70;;;;;;5013389;28;20096;-77
2022/05/28 02:51:23;;;;;;;0.10;0.10;;;9.90;99.60;;;;;;5013037;28;20096;-77
2022/05/28 02:53:51;;;;;;;0.40;0.20;;;9.90;99.50;;;;;;5013201;28;20046;-76
2022/05/28 02:56:16;;;;;;;0.75;0.13;;;9.90;99.60;;;;;;4979320;28;20571;-76
2022/05/28 02:58:42;;;;;;;1.23;0.30;;;9.90;99.60;;;;;;5013104;28;20133;-76
2022/05/28 03:01:28;;;;;;;0.10;0.10;;;9.90;99.60;;;;;;4995530;28;20132;-75
2022/05/28 03:03:54;;;;;;;0.13;0.10;;;10.00;99.90;;;;;;5018608;28;20046;-73
2022/05/28 03:06:20;;;;;;;0.22;0.10;;;9.90;99.80;;;;;;5023749;28;20102;-72
2022/05/28 03:08:46;;;;;;;0.15;0.15;;;9.90;99.80;;;;;;5021992;28;20081;-74
2022/05/28 03:11:11;;;;;;;0.10;0.10;;;9.80;99.90;;;;;;5021633;28;20053;-73
2022/05/28 03:13:37;;;;;;;0.10;0.10;;;9.90;99.90;;;;;;5014894;28;20132;-76
2022/05/28 03:16:03;;;;;;;1.55;0.22;;;9.80;99.90;;;;;;5011668;28;20394;-76
2022/05/28 03:18:29;;;;;;;0.10;0.10;;;9.80;99.90;;;;;;5011379;28;20375;-76
2022/05/28 03:20:54;;;;;;;0.40;0.10;;;9.80;99.90;;;;;;5012194;28;20065;-77
2022/05/28 03:23:20;;;;;;;0.10;0.10;;;9.80;99.90;;;;;;5011202;28;20058;-76
2022/05/28 03:25:46;;;;;;;0.10;0.10;;;9.80;99.90;;;;;;5011688;28;20057;-75
2022/05/28 03:28:11;;;;;;;0.32;0.13;;;9.80;99.90;;;;;;5011366;28;20050;-76
2022/05/28 03:30:37;;;;;;;0.15;0.10;;;9.80;99.90;;;;;;5011629;28;20086;-76
2022/05/28 03:33:03;;;;;;;0.10;0.10;;;9.80;99.90;;;;;;5012288;28;20050;-76
2022/05/28 03:35:28;;;;;;;0.10;0.10;;;9.80;99.90;;;;;;5012912;28;20049;-76
2022/05/28 03:37:54;;;;;;;0.20;0.10;;;9.80;99.90;;;;;;4997020;28;20061;-76
2022/05/28 03:40:20;;;;;;;0.20;0.10;;;9.80;99.90;;;;;;5016348;28;20088;-77
2022/05/28 03:42:45;;;;;;;0.35;0.20;;;9.80;99.90;;;;;;5016756;28;20470;-76
2022/05/28 03:45:11;;;;;;;0.65;0.17;;;9.90;99.90;;;;;;5016288;28;20077;-77
2022/05/28 03:47:37;;;;;;;0.20;0.15;;;9.90;99.90;;;;;;4998954;28;20124;-76
2022/05/28 03:50:03;;;;;;;2.63;0.15;;;10.00;99.90;;;;;;5016587;28;20054;-77
2022/05/28 03:52:28;;;;;;;0.68;0.20;;;9.90;99.90;;;;;;5015178;28;20073;-76
2022/05/28 03:54:54;;;;;;;0.40;0.10;;;10.00;99.90;;;;;;5016376;28;20517;-76
2022/05/28 03:57:28;;;;;;;0.80;0.20;;;10.10;99.90;;;;;;5031394;28;20041;-76
2022/05/28 03:59:54;;;;;;;0.10;0.10;;;10.10;99.90;;;;;;5016283;28;20056;-76
2022/05/28 04:02:20;;;;;;;0.20;0.20;;;10.20;99.90;;;;;;5015794;28;20042;-77
2022/05/28 04:04:46;;;;;;;2.22;0.20;;;10.30;99.90;;;;;;5015359;28;20156;-76
2022/05/28 04:07:12;;;;;;;1.27;0.10;;;10.30;99.90;;;;;;5014776;28;20046;-76
2022/05/28 04:09:37;;;;;;;0.10;0.10;;;10.30;99.90;;;;;;5015024;28;20042;-76
2022/05/28 04:12:03;;;;;;;0.63;0.20;;;10.30;99.90;;;;;;5016157;28;20383;-76
2022/05/28 04:14:29;;;;;;;0.80;0.20;;;10.30;99.90;;;;;;5015780;28;20056;-76
2022/05/28 04:16:55;;;;;;;0.10;0.10;;;10.40;99.90;;;;;;5015878;28;20046;-75
2022/05/28 04:19:20;;;;;;;0.10;0.10;;;10.30;99.90;;;;;;5015841;28;20052;-77
2022/05/28 04:21:46;;;;;;;0.95;0.20;;;10.30;99.90;;;;;;5016058;28;20057;-78
2022/05/28 04:24:12;;;;;;;1.15;0.20;;;10.30;99.80;;;;;;5014569;28;20050;-77
2022/05/28 04:26:37;;;;;;;0.65;0.17;;;10.30;99.80;;;;;;5015027;28;20536;-76
2022/05/28 04:29:03;;;;;;;0.43;0.15;;;10.30;99.70;;;;;;5014687;28;20370;-76
2022/05/28 04:31:29;;;;;;;0.15;0.15;;;10.30;99.70;;;;;;5014395;28;20375;-78
2022/05/28 04:33:55;;;;;;;0.17;0.13;;;10.40;99.70;;;;;;5016022;28;20129;-77
2022/05/28 04:36:20;;;;;;;0.93;0.20;;;10.40;99.70;;;;;;5025157;28;20041;-78
2022/05/28 04:38:46;;;;;;;0.93;0.13;;;10.50;99.70;;;;;;5037273;28;20048;-77
2022/05/28 04:41:12;;;;;;;0.10;0.10;;;10.50;99.50;;;;;;5033020;28;20061;-82
2022/05/28 04:43:37;;;;;;;0.13;0.10;;;10.60;99.40;;;;;;5018165;28;20026;-78
2022/05/28 04:46:03;;;;;;;0.43;0.20;;;10.60;99.40;;;;;;5039962;28;20022;-79
2022/05/28 04:48:29;;;;;;;0.10;0.10;;;10.60;99.40;;;;;;5023176;28;20113;-80
2022/05/28 04:50:54;;;;;;;0.20;0.20;;;10.70;99.20;;;;;;5035855;28;20077;-77
2022/05/28 04:53:20;;;;;;;1.08;0.10;;;10.60;99.10;;;;;;5014094;28;20038;-77
2022/05/28 04:55:45;;;;;;;0.17;0.10;;;10.70;99.50;;;;;;5015745;28;20053;-77
2022/05/28 04:58:12;;;;;;;0.43;0.10;;;10.80;99.10;;;;;;5014665;28;20473;-77
2022/05/28 05:00:38;;;;;;;0.70;0.10;;;10.80;98.90;;;;;;5014994;28;20060;-77
2022/05/28 05:03:03;;;;;;;1.23;0.20;;;10.90;98.90;;;;;;5015479;28;20045;-77
2022/05/28 05:05:29;;;;;;;1.23;0.20;;;11.00;98.90;;;;;;5014145;28;20053;-77
2022/05/28 05:07:54;;;;;;;1.40;0.30;;;11.00;98.80;;;;;;5015323;28;20046;-78
2022/05/28 05:10:20;;;;;;;0.43;0.20;;;11.00;98.60;;;;;;4997615;28;20129;-78
2022/05/28 05:12:46;;;;;;;0.85;0.20;;;11.10;98.60;;;;;;5030299;28;20042;-77
2022/05/28 05:15:12;;;;;;;0.40;0.20;;;11.10;98.60;;;;;;5014002;28;20542;-77
2022/05/28 05:17:37;;;;;;;0.88;0.20;;;11.10;98.70;;;;;;5014820;28;20053;-78
2022/05/28 05:20:03;;;;;;;1.30;0.20;;;11.20;98.60;;;;;;4981322;28;20437;-77
2022/05/28 05:22:29;;;;;;;0.60;0.20;;;11.20;98.70;;;;;;5013227;28;20569;-78
2022/05/28 05:24:55;;;;;;;0.70;0.20;;;11.20;98.50;;;;;;5013711;28;20129;-78
2022/05/28 05:27:20;;;;;;;0.17;0.10;;;11.30;98.50;;;;;;5014624;28;20516;-78
2022/05/28 05:29:46;;;;;;;0.20;0.20;;;11.20;98.90;;;;;;5013803;28;20085;-77
2022/05/28 05:32:12;;;;;;;0.45;0.20;;;11.30;99.00;;;;;;5013473;28;20062;-78
2022/05/28 05:34:38;;;;;;;1.15;0.20;;;11.30;99.30;;;;;;5014640;28;20192;-77
2022/05/28 05:37:04;;;;;;;0.10;0.10;;;11.40;99.40;;;;;;5013504;28;20088;-76
2022/05/28 05:39:30;;;;;;;0.85;0.20;;;11.50;99.60;;;;;;5013122;28;20041;-75
2022/05/28 05:41:56;;;;;;;0.30;0.20;;;11.60;99.70;;;;;;5013671;28;20057;-76
2022/05/28 05:44:21;;;;;;;0.90;0.20;;;11.70;99.50;;;;;;5014259;28;20041;-76
2022/05/28 05:46:47;;;;;;;0.20;0.10;;;11.80;99.70;;;;;;5013111;28;20061;-76
2022/05/28 05:49:13;;;;;;;0.17;0.17;;;11.70;99.50;;;;;;5014670;28;20038;-77
2022/05/28 05:51:44;;;;;;;0.40;0.10;;;11.70;99.40;;;;;;5014265;28;20426;-76
2022/05/28 05:54:10;;;;;;;0.10;0.10;;;11.70;99.60;;;;;;5014440;28;20173;-76
2022/05/28 05:56:36;;;;;;;0.52;0.30;;;11.70;99.80;;;;;;5013402;28;20510;-77
2022/05/28 05:59:01;;;;;;;0.10;0.10;;;11.70;99.90;;;;;;5013528;28;20049;-78
2022/05/28 06:01:27;;;;;;;0.47;0.10;;;11.80;99.80;;;;;;5013751;28;20081;-77
2022/05/28 06:03:53;;;;;;;0.40;0.15;;;11.90;99.60;;;;;;5013281;28;20528;-76
2022/05/28 06:06:19;;;;;;;0.17;0.17;;;11.90;99.40;;;;;;5014239;28;20081;-77
2022/05/28 06:08:45;;;;;;;0.32;0.13;;;12.00;99.30;;;;;;5012997;28;20054;-77
2022/05/28 06:11:10;;;;;;;0.15;0.15;;;11.90;99.30;;;;;;5013498;28;20050;-77
2022/05/28 06:13:36;;;;;;;0.52;0.25;;;11.90;99.50;;;;;;5017942;28;20096;-77
2022/05/28 06:16:02;;;;;;;3.03;0.30;;;11.90;99.60;;;;;;5029513;28;20050;-77
2022/05/28 06:18:29;;;;;;;0.10;0.10;;;11.90;99.50;;;;;;5028309;28;20053;-77
2022/05/28 06:20:55;;;;;;;1.13;0.10;;;11.90;99.70;;;;;;5017267;28;20062;-76
2022/05/28 06:23:20;;;;;;;0.38;0.17;;;12.00;99.60;;;;;;5002066;28;20050;-76
2022/05/28 06:25:46;;;;;;;0.10;0.10;;;12.00;99.70;;;;;;5038231;28;20061;-77
2022/05/28 06:28:12;;;;;;;2.10;0.20;;;12.10;99.80;;;;;;5037554;28;20045;-77
2022/05/28 06:30:39;;;;;;;0.90;0.20;;;12.10;99.60;;;;;;5024116;28;20056;-76
2022/05/28 06:33:05;;;;;;;0.10;0.10;;;12.20;99.70;;;;;;5014081;28;20046;-76
2022/05/28 06:35:31;;;;;;;0.30;0.20;;;12.30;99.70;;;;;;5013840;28;20053;-78
2022/05/28 06:37:57;;;;;;;0.20;0.20;;;12.40;99.70;;;;;;5012628;28;20042;-76
2022/05/28 06:40:22;;;;;;;0.50;0.20;;;12.40;99.50;;;;;;5012371;28;20046;-77
2022/05/28 06:42:49;;;;;;;2.33;0.20;;;12.40;99.50;;;;;;5013140;28;20331;-77
2022/05/28 06:45:15;;;;;;;0.60;0.20;;;12.30;99.70;;;;;;5013784;28;20129;-77
2022/05/28 06:47:44;;;;;;;0.10;0.10;;;12.20;99.90;;;;;;5013528;28;20137;-76
2022/05/28 06:52:55;;;;;;;0.20;0.20;;;11.90;99.90;;;;;;5012874;28;20052;-80
2022/05/28 06:55:21;;;;;;;0.28;0.20;;;11.70;99.90;;;;;;5013656;28;20128;-80
2022/05/28 06:57:46;;;;;;;0.25;0.20;;;11.70;99.90;;;;;;5013141;28;20056;-80
2022/05/28 07:00:13;;;;;;;0.35;0.25;;;11.60;99.90;;;;;;5012359;28;20115;-80
2022/05/28 07:02:38;;;;;;;0.10;0.10;;;11.60;99.90;;;;;;4995690;28;20482;-80
2022/05/28 07:05:04;;;;;;;0.93;0.20;;;11.60;99.90;;;;;;5011973;28;20057;-80
2022/05/28 07:07:30;;;;;;;1.17;0.20;;;11.50;99.90;;;;;;5013345;28;20065;-81
2022/05/28 07:09:55;;;;;;;0.40;0.20;;;11.30;99.90;;;;;;5011744;28;20046;-79
2022/05/28 07:12:21;;;;;;;0.75;0.30;;;11.20;99.90;;;;;;5011135;28;20379;-79
2022/05/28 07:14:47;;;;;;;0.55;0.20;;;11.20;99.90;;;;;;5012916;28;20177;-78
2022/05/28 07:17:15;;;;;;;0.32;0.17;;;11.10;99.90;;;;;;5011850;28;20046;-78
2022/05/28 07:19:41;;;;;;;0.40;0.20;;;11.00;99.90;;;;;;5028201;28;20410;-76
2022/05/28 07:22:07;;;;;;;2.03;0.52;;;10.90;99.90;;;;;;5011915;28;20129;-75
2022/05/28 07:24:33;;;;;;;0.32;0.13;;;10.90;99.90;;;;;;5011756;28;20108;-77
2022/05/28 07:27:01;;;;;;;0.28;0.20;;;11.00;99.90;;;;;;5011302;28;20054;-78
2022/05/28 07:29:27;;;;;;;0.20;0.20;;;11.00;99.90;;;;;;5012971;28;20389;-79
2022/05/28 07:31:52;;;;;;;1.20;0.20;;;11.00;99.90;;;;;;5012621;28;20042;-78
2022/05/28 07:34:18;;;;;;;1.00;0.10;;;11.20;99.90;;;;;;5011851;28;20050;-77
2022/05/28 07:36:44;;;;;;;0.20;0.20;;;11.30;99.90;;;;;;5012361;28;20125;-77
2022/05/28 07:39:09;;;;;;;1.75;0.20;;;11.30;99.90;;;;;;5011862;28;20045;-77
2022/05/28 07:41:36;;;;;;;0.20;0.20;;;11.40;99.90;;;;;;5012024;28;20041;-77
2022/05/28 07:44:02;;;;;;;0.15;0.15;;;11.50;99.90;;;;;;5012597;28;20103;-78
2022/05/28 07:46:29;;;;;;;1.30;0.30;;;11.70;99.90;;;;;;5012769;28;20132;-77
2022/05/28 07:48:55;;;;;;;1.27;0.20;;;11.90;99.90;;;;;;4995031;28;20046;-76
2022/05/28 07:51:21;;;;;;;0.20;0.20;;;12.00;99.90;;;;;;5011631;28;20508;-76
2022/05/28 07:53:47;;;;;;;0.22;0.20;;;12.20;99.90;;;;;;5012126;28;20038;-77
2022/05/28 07:56:13;;;;;;;0.28;0.20;;;12.50;99.90;;;;;;5011534;28;20489;-77
2022/05/28 07:58:40;;;;;;;0.80;0.20;;;12.80;99.90;;;;;;4995019;28;20046;-76
2022/05/28 08:01:06;;;;;;;0.65;0.22;;;12.90;99.90;;;;;;5012444;28;20185;-77
2022/05/28 08:03:32;;;;;;;1.38;0.40;;;12.80;99.90;;;;;;5011640;28;20042;-80
2022/05/28 08:05:58;;;;;;;0.57;0.20;;;12.70;99.90;;;;;;5012098;28;20057;-81
2022/05/28 08:08:24;;;;;;;1.23;0.35;;;12.80;99.90;;;;;;5036882;28;20041;-82
2022/05/28 08:10:51;;;;;;;0.95;0.30;;;12.70;99.90;;;;;;5035119;28;20033;-82
2022/05/28 08:13:21;;;;;;;0.85;0.40;;;12.70;99.90;;;;;;5001994;28;20077;-81
2022/05/28 08:15:48;;;;;;;1.25;0.30;;;12.80;99.90;;;;;;5033959;28;20046;-87
2022/05/28 08:18:15;;;;;;;0.28;0.28;;;13.00;99.90;;;;;;5020207;28;20045;-80
2022/05/28 08:23:25;;;;;;;1.10;0.30;;;13.10;99.90;;;;;;5036077;28;20071;-75
2022/05/28 08:25:51;;;;;;;0.88;0.30;;;13.00;99.90;;;;;;5029366;28;20054;-77
2022/05/28 08:28:18;;;;;;;0.28;0.22;;;12.90;99.90;;;;;;5016207;28;20045;-77
2022/05/28 08:30:44;;;;;;;2.63;0.30;;;12.90;99.90;;;;;;4998734;28;20045;-77
2022/05/28 08:33:10;;;;;;;1.85;0.30;;;12.80;99.90;;;;;;5017465;28;20041;-77
2022/05/28 08:35:36;;;;;;;0.40;0.30;;;12.90;99.90;;;;;;5018466;28;20096;-77
2022/05/28 08:38:08;;;;;;;0.82;0.20;;;12.90;99.90;;;;;;5016809;28;20046;-77
2022/05/28 08:40:37;;;;;;;0.63;0.30;;;12.90;99.90;;;;;;4998910;28;20172;-77
2022/05/28 08:43:03;;;;;;;0.60;0.20;;;12.90;99.90;;;;;;4982148;28;20486;-77
2022/05/28 08:45:32;;;;;;;0.15;0.15;;;13.00;99.90;;;;;;5014710;28;20085;-78
2022/05/28 08:47:58;;;;;;;2.03;0.38;;;13.10;99.90;;;;;;5015759;28;20046;-78
2022/05/28 08:50:23;;;;;;;17.38;7.95;;;13.10;99.90;;;;;;5015457;28;20046;-77
2022/05/28 08:52:59;;;;;;;0.90;0.30;;;13.30;99.90;;;;;;4998039;28;20446;-77
2022/05/28 08:55:25;;;;;;;0.80;0.65;;;13.60;99.90;;;;;;4998827;28;20497;-77
2022/05/28 08:58:01;;;;;;;3.38;0.40;;;13.70;99.90;;;;;;5015299;28;20049;-77
2022/05/28 09:01:03;;;;;;;0.85;0.50;;;13.70;98.90;;;;;;5015312;28;20050;-77
2022/05/28 09:03:36;;;;;;;2.53;1.45;;;13.60;98.30;;;;;;5016235;28;20103;-76
2022/05/28 09:06:03;;;;;;;0.68;0.28;;;13.50;98.20;;;;;;5013482;28;20068;-77
2022/05/28 09:08:44;;;;;;;0.63;0.13;;;13.50;97.90;;;;;;5015273;28;20050;-77
2022/05/28 09:11:22;;;;;;;0.30;0.20;;;13.50;97.00;;;;;;4997742;28;20046;-77
2022/05/28 09:13:53;;;;;;;0.57;0.20;;;13.50;97.90;;;;;;4983472;28;20123;-78
2022/05/28 09:16:22;;;;;;;0.47;0.20;;;13.50;98.20;;;;;;5015281;28;20042;-77
2022/05/28 09:18:50;;;;;;;0.25;0.20;;;13.60;98.20;;;;;;5014935;28;20092;-77
2022/05/28 09:21:16;;;;;;;0.50;0.20;;;13.50;98.10;;;;;;5013483;28;20413;-77
2022/05/28 09:23:45;;;;;;;2.20;0.20;;;13.50;97.70;;;;;;5014703;28;20069;-77
2022/05/28 09:26:11;;;;;;;0.45;0.20;;;13.60;97.90;;;;;;5013379;28;20093;-78
2022/05/28 09:29:01;;;;;;;0.25;0.20;;;13.60;98.00;;;;;;5013647;28;20041;-77
2022/05/28 09:31:50;;;;;;;0.22;0.10;;;13.60;97.20;;;;;;5013016;28;20069;-76
2022/05/28 09:34:24;;;;;;;0.30;0.20;;;13.40;97.00;;;;;;5014495;28;20124;-77
2022/05/28 09:37:27;;;;;;;1.58;0.22;;;13.20;97.00;;;;;;5014857;28;20049;-76
2022/05/28 09:40:06;;;;;;;0.40;0.15;;;13.10;97.20;;;;;;5014881;28;20050;-77
2022/05/28 09:43:10;;;;;;;0.40;0.15;;;13.20;98.00;;;;;;5013278;28;20060;-76
2022/05/28 09:46:04;;;;;;;0.77;0.20;;;13.20;97.50;;;;;;5014400;28;20398;-75
2022/05/28 09:48:29;;;;;;;0.85;0.30;;;13.30;98.20;;;;;;5029414;28;20045;-76
2022/05/28 09:50:55;;;;;;;2.35;0.30;;;13.40;98.40;;;;;;5014063;28;20057;-77
2022/05/28 09:56:21;;;;;;;0.10;0.10;;;13.70;98.00;;;;;;5012854;28;20054;-77
2022/05/28 09:58:46;;;;;;;0.25;0.20;;;13.80;97.90;;;;;;5013003;28;20050;-76
2022/05/28 10:01:34;;;;;;;0.90;0.30;;;13.90;97.80;;;;;;5013653;28;20068;-77
2022/05/28 10:06:53;;;;;;;0.63;0.22;;;13.80;96.90;;;;;;5016394;28;20092;-77
2022/05/28 10:09:48;;;;;;;0.85;0.30;;;13.60;96.80;;;;;;5013412;28;20050;-75
2022/05/28 10:12:21;;;;;;;0.15;0.15;;;13.30;95.40;;;;;;5037305;28;20029;-74
2022/05/28 10:14:57;;;;;;;0.73;0.40;;;13.20;96.80;;;;;;5038080;28;20081;-74
2022/05/28 10:17:24;;;;;;;1.23;0.20;;;13.10;97.40;;;;;;5037572;28;20057;-77
2022/05/28 10:19:50;;;;;;;0.63;0.20;;;13.10;97.30;;;;;;5014868;28;20132;-77
2022/05/28 10:22:19;;;;;;;1.20;0.15;;;13.20;97.60;;;;;;4996637;28;20434;-77
2022/05/28 10:24:46;;;;;;;1.15;0.20;;;13.20;97.20;;;;;;4996255;28;20058;-77
2022/05/28 10:27:34;;;;;;;0.20;0.20;;;13.30;97.40;;;;;;5013943;28;20053;-76
2022/05/28 10:30:06;;;;;;;1.63;0.22;;;13.40;97.40;;;;;;5012951;28;20477;-77
2022/05/28 10:32:36;;;;;;;0.52;0.20;;;13.50;97.50;;;;;;5013730;28;20099;-77
2022/05/28 10:35:26;;;;;;;0.20;0.20;;;13.50;96.60;;;;;;5013855;28;20563;-77
2022/05/28 10:37:53;;;;;;;0.43;0.17;;;13.40;96.90;;;;;;5012977;28;20054;-81
2022/05/28 10:40:24;;;;;;;0.28;0.20;;;13.50;97.10;;;;;;4996354;28;20046;-77
2022/05/28 10:42:52;;;;;;;0.35;0.25;;;13.70;97.40;;;;;;5013978;28;20054;-77
2022/05/28 10:45:19;;;;;;;0.45;0.20;;;13.70;96.70;;;;;;4996530;28;20050;-77
2022/05/28 10:48:05;;;;;;;0.55;0.35;;;13.70;97.00;;;;;;4981338;28;20057;-77
2022/05/28 10:50:40;;;;;;;0.40;0.10;;;13.70;96.80;;;;;;5012450;28;20049;-77
2022/05/28 10:53:12;;;;;;;1.15;0.20;;;13.70;97.10;;;;;;5013409;28;20038;-79
2022/05/28 10:56:00;;;;;;;0.82;0.20;;;13.70;97.00;;;;;;4997064;28;20050;-77
2022/05/28 10:58:29;;;;;;;1.92;0.22;;;13.80;96.80;;;;;;4998745;28;20393;-77
2022/05/28 11:00:59;;;;;;;0.32;0.28;;;13.90;97.00;;;;;;5013653;28;20128;-77
2022/05/28 11:03:41;;;;;;;0.38;0.20;;;13.90;96.90;;;;;;5014537;28;20053;-77
2022/05/28 11:06:26;;;;;;;0.38;0.20;;;13.90;97.00;;;;;;5012618;28;20069;-80
2022/05/28 11:09:47;;;;;;;3.38;0.30;;;13.80;97.00;;;;;;5012306;28;20524;-77
2022/05/28 11:12:31;;;;;;;;;;;13.80;98.00;;;;;;4982762;28;20060;-76
2022/05/28 11:15:25;;;;;;;1.73;0.30;;;14.10;98.40;;;;;;5012464;28;19929;-77
2022/05/28 11:17:54;;;;;;;0.68;0.22;;;14.50;97.40;;;;;;5012175;28;20049;-77
2022/05/28 11:20:28;;;;;;;0.70;0.20;;;14.60;96.70;;;;;;5011899;28;20086;-78
2022/05/28 11:23:13;;;;;;;1.58;0.28;;;14.60;95.90;;;;;;5013044;28;20112;-77
2022/05/28 11:25:56;;;;;;;1.75;0.20;;;14.60;96.30;;;;;;5013226;28;20093;-77
2022/05/28 11:28:42;;;;;;;0.63;0.30;;;14.40;95.50;;;;;;4980367;28;20260;-77
2022/05/28 11:31:24;;;;;;;0.30;0.20;;;14.30;95.70;;;;;;5012222;28;20068;-76
2022/05/28 11:33:50;;;;;;;0.30;0.20;;;14.30;95.70;;;;;;5011722;28;20125;-76
2022/05/28 11:36:30;;;;;;;0.85;0.20;;;14.20;95.60;;;;;;5012616;28;20192;-77
2022/05/28 11:38:57;;;;;;;;;;;14.30;93.60;;;;;;4996255;28;20403;-76
2022/05/28 11:41:29;;;;;;;0.90;0.20;;;14.20;91.20;;;;;;5012439;28;19922;-76
2022/05/28 11:44:06;;;;;;;1.00;0.20;;;14.20;94.10;;;;;;5012917;28;20049;-76
2022/05/28 11:46:32;;;;;;;0.38;0.20;;;14.10;94.80;;;;;;5011519;28;20410;-77
2022/05/28 11:52:11;;;;;;;1.42;0.30;;;14.30;94.50;;;;;;5012216;28;20057;-77
2022/05/28 11:54:44;;;;;;;0.68;0.28;;;14.40;95.20;;;;;;5011555;28;20054;-76
2022/05/28 11:57:21;;;;;;;0.40;0.20;;;14.40;94.70;;;;;;4997034;28;20054;-76
2022/05/28 11:59:46;;;;;;;0.70;0.20;;;14.30;94.30;;;;;;5017375;28;20052;-77
2022/05/28 12:02:14;;;;;;;0.50;0.22;;;14.30;95.10;;;;;;4999306;28;20046;-77
2022/05/28 12:04:41;;;;;;;0.20;0.20;;;14.40;95.30;;;;;;5031626;28;20045;-72
2022/05/28 12:07:12;;;;;;;1.33;0.20;;;14.50;95.40;;;;;;5023180;28;20060;-74
2022/05/28 12:09:43;;;;;;;0.17;0.15;;;14.80;94.60;;;;;;5022188;28;20061;-73
2022/05/28 12:12:25;;;;;;;0.55;0.20;;;15.00;94.80;;;;;;4996063;28;20057;-77
2022/05/28 12:15:15;;;;;;;0.22;0.10;;;15.20;94.00;;;;;;5016716;28;20045;-75
2022/05/28 12:17:41;;;;;;;0.73;0.30;;;15.20;92.70;;;;;;5016320;28;20060;-77
2022/05/28 12:20:10;;;;;;;0.10;0.10;;;15.20;93.00;;;;;;5016276;28;20465;-76
2022/05/28 12:22:37;;;;;;;0.32;0.25;;;15.30;93.60;;;;;;5015020;28;20054;-77
2022/05/28 12:25:13;;;;;;;0.10;0.10;;;15.40;92.60;;;;;;5015356;28;20104;-78
2022/05/28 12:27:47;;;;;;;0.10;0.10;;;15.30;92.20;;;;;;5016227;28;20064;-77
2022/05/28 12:30:35;;;;;;;0.45;0.20;;;15.10;92.60;;;;;;5015059;28;20138;-77
2022/05/28 12:33:01;;;;;;;0.90;0.20;;;14.80;90.50;;;;;;5014928;28;20133;-77
2022/05/28 12:35:35;;;;;;;0.38;0.20;;;14.60;91.90;;;;;;5014521;28;20129;-75
2022/05/28 12:38:08;;;;;;;0.20;0.20;;;14.50;91.20;;;;;;5016406;28;20050;-78
2022/05/28 12:40:40;;;;;;;0.35;0.30;;;14.40;92.10;;;;;;5014844;28;20500;-77
2022/05/28 12:43:15;;;;;;;0.10;0.10;;;14.40;92.40;;;;;;5015857;28;20045;-77
2022/05/28 12:45:42;;;;;;;0.47;0.20;;;14.50;92.20;;;;;;5014356;28;20128;-77
2022/05/28 12:48:28;;;;;;;0.75;0.22;;;14.60;92.60;;;;;;5014636;28;20053;-77
2022/05/28 12:50:59;;;;;;;0.20;0.20;;;14.80;92.70;;;;;;5015058;28;20402;-77
2022/05/28 12:53:26;;;;;;;0.98;0.30;;;14.90;92.90;;;;;;5015407;28;20049;-77
2022/05/28 12:56:00;;;;;;;0.50;0.20;;;14.90;92.00;;;;;;5014496;28;20053;-77
2022/05/28 12:58:27;;;;;;;1.52;0.30;;;14.70;91.70;;;;;;5014046;28;20046;-77
2022/05/28 13:01:15;;;;;;;0.28;0.20;;;14.60;92.20;;;;;;4998229;28;20530;-77
2022/05/28 13:03:41;;;;;;;0.77;0.20;;;14.50;91.50;;;;;;4999220;28;20057;-77
2022/05/28 13:06:22;;;;;;;0.82;0.13;;;14.60;92.60;;;;;;5015563;28;20045;-75
2022/05/28 13:08:51;;;;;;;1.40;0.38;;;14.90;92.30;;;;;;5014950;28;20152;-77
2022/05/28 13:11:57;;;;;;;0.43;0.20;;;15.20;91.80;;;;;;4997614;28;20056;-77
2022/05/28 13:14:30;;;;;;;0.47;0.20;;;15.30;86.60;;;;;;5015181;28;20058;-77
2022/05/28 13:17:27;;;;;;;0.10;0.10;;;15.10;88.70;;;;;;5014303;28;20050;-76
2022/05/28 13:20:12;;;;;;;0.22;0.20;;;14.80;87.00;;;;;;5014118;28;20054;-77